sensor_id;sensor_type;location;lat;lon;timestamp;P1;durP1;ratioP1;P2;durP2;ratioP2
74528;SDS011;63009;52.584;5.932;2022-09-09T00:01:20;8.00;;;3.42;;
74528;SDS011;63009;52.584;5.932;2022-09-09T00:04:00;9.25;;;3.95;;
74528;SDS011;63009;52.584;5.932;2022-09-09T00:06:28;8.30;;;3.50;;
74528;SDS011;63009;52.584;5.932;2022-09-09T00:09:15;9.20;;;3.60;;
74528;SDS011;63009;52.584;5.932;2022-09-09T00:11:43;8.43;;;4.00;;
74528;SDS011;63009;52.584;5.932;2022-09-09T00:17:09;9.63;;;4.65;;
74528;SDS011;63009;52.584;5.932;2022-09-09T00:19:53;9.82;;;3.95;;
74528;SDS011;63009;52.584;5.932;2022-09-09T00:22:26;8.73;;;4.43;;
74528;SDS011;63009;52.584;5.932;2022-09-09T00:24:56;8.85;;;3.75;;
74528;SDS011;63009;52.584;5.932;2022-09-09T00:27:48;10.02;;;4.05;;
74528;SDS011;63009;52.584;5.932;2022-09-09T00:30:18;8.38;;;4.30;;
74528;SDS011;63009;52.584;5.932;2022-09-09T00:32:48;9.85;;;4.45;;
74528;SDS011;63009;52.584;5.932;2022-09-09T00:37:58;10.15;;;4.00;;
74528;SDS011;63009;52.584;5.932;2022-09-09T00:40:32;8.13;;;3.42;;
74528;SDS011;63009;52.584;5.932;2022-09-09T00:52:12;8.98;;;3.22;;
74528;SDS011;63009;52.584;5.932;2022-09-09T00:54:45;9.35;;;2.83;;
74528;SDS011;63009;52.584;5.932;2022-09-09T00:57:28;7.32;;;3.03;;
74528;SDS011;63009;52.584;5.932;2022-09-09T01:02:59;6.75;;;2.10;;
74528;SDS011;63009;52.584;5.932;2022-09-09T01:08:28;6.97;;;2.67;;
74528;SDS011;63009;52.584;5.932;2022-09-09T01:11:21;5.82;;;2.03;;
74528;SDS011;63009;52.584;5.932;2022-09-09T01:13:47;7.90;;;1.98;;
74528;SDS011;63009;52.584;5.932;2022-09-09T01:16:18;9.68;;;2.75;;
74528;SDS011;63009;52.584;5.932;2022-09-09T01:18:44;7.43;;;2.50;;
74528;SDS011;63009;52.584;5.932;2022-09-09T01:21:33;7.28;;;1.95;;
74528;SDS011;63009;52.584;5.932;2022-09-09T01:26:47;5.35;;;1.95;;
74528;SDS011;63009;52.584;5.932;2022-09-09T01:29:16;7.13;;;2.30;;
74528;SDS011;63009;52.584;5.932;2022-09-09T01:32:02;5.60;;;1.95;;
74528;SDS011;63009;52.584;5.932;2022-09-09T01:34:48;5.45;;;2.08;;
74528;SDS011;63009;52.584;5.932;2022-09-09T01:37:15;6.38;;;1.80;;
74528;SDS011;63009;52.584;5.932;2022-09-09T01:39:41;9.52;;;2.25;;
74528;SDS011;63009;52.584;5.932;2022-09-09T01:42:09;6.60;;;1.85;;
74528;SDS011;63009;52.584;5.932;2022-09-09T01:44:38;5.57;;;1.77;;
74528;SDS011;63009;52.584;5.932;2022-09-09T01:47:04;6.97;;;1.63;;
74528;SDS011;63009;52.584;5.932;2022-09-09T01:49:30;9.02;;;2.47;;
74528;SDS011;63009;52.584;5.932;2022-09-09T01:51:57;8.90;;;2.10;;
74528;SDS011;63009;52.584;5.932;2022-09-09T01:54:24;6.60;;;2.22;;
74528;SDS011;63009;52.584;5.932;2022-09-09T02:04:44;6.47;;;2.00;;
74528;SDS011;63009;52.584;5.932;2022-09-09T02:07:28;6.20;;;2.10;;
74528;SDS011;63009;52.584;5.932;2022-09-09T02:10:16;7.88;;;2.10;;
74528;SDS011;63009;52.584;5.932;2022-09-09T02:12:49;5.28;;;1.90;;
74528;SDS011;63009;52.584;5.932;2022-09-09T02:16:03;7.13;;;1.95;;
74528;SDS011;63009;52.584;5.932;2022-09-09T02:18:13;5.57;;;1.75;;
74528;SDS011;63009;52.584;5.932;2022-09-09T02:20:47;6.70;;;2.28;;
74528;SDS011;63009;52.584;5.932;2022-09-09T02:23:13;7.55;;;2.20;;
74528;SDS011;63009;52.584;5.932;2022-09-09T02:25:40;7.07;;;2.45;;
74528;SDS011;63009;52.584;5.932;2022-09-09T02:28:06;6.55;;;2.38;;
74528;SDS011;63009;52.584;5.932;2022-09-09T02:30:35;7.75;;;2.20;;
74528;SDS011;63009;52.584;5.932;2022-09-09T02:35:30;9.25;;;2.25;;
74528;SDS011;63009;52.584;5.932;2022-09-09T02:37:58;7.00;;;2.70;;
74528;SDS011;63009;52.584;5.932;2022-09-09T02:40:27;7.15;;;2.95;;
74528;SDS011;63009;52.584;5.932;2022-09-09T02:42:53;9.13;;;3.08;;
74528;SDS011;63009;52.584;5.932;2022-09-09T02:45:19;8.75;;;3.25;;
74528;SDS011;63009;52.584;5.932;2022-09-09T02:50:35;8.07;;;3.33;;
74528;SDS011;63009;52.584;5.932;2022-09-09T02:56:01;8.02;;;2.92;;
74528;SDS011;63009;52.584;5.932;2022-09-09T02:58:30;7.32;;;3.10;;
74528;SDS011;63009;52.584;5.932;2022-09-09T03:00:58;8.57;;;2.95;;
74528;SDS011;63009;52.584;5.932;2022-09-09T03:03:26;8.70;;;2.97;;
74528;SDS011;63009;52.584;5.932;2022-09-09T03:05:52;7.50;;;2.55;;
74528;SDS011;63009;52.584;5.932;2022-09-09T03:08:17;8.82;;;2.90;;
74528;SDS011;63009;52.584;5.932;2022-09-09T03:10:43;8.93;;;2.95;;
74528;SDS011;63009;52.584;5.932;2022-09-09T03:13:08;9.00;;;3.33;;
74528;SDS011;63009;52.584;5.932;2022-09-09T03:15:34;9.27;;;2.97;;
74528;SDS011;63009;52.584;5.932;2022-09-09T03:18:00;7.40;;;3.08;;
74528;SDS011;63009;52.584;5.932;2022-09-09T03:20:26;8.35;;;3.25;;
74528;SDS011;63009;52.584;5.932;2022-09-09T03:22:53;9.20;;;2.97;;
74528;SDS011;63009;52.584;5.932;2022-09-09T03:25:20;7.93;;;3.13;;
74528;SDS011;63009;52.584;5.932;2022-09-09T03:27:45;9.40;;;3.35;;
74528;SDS011;63009;52.584;5.932;2022-09-09T03:30:11;9.27;;;3.47;;
74528;SDS011;63009;52.584;5.932;2022-09-09T03:32:36;8.63;;;3.67;;
74528;SDS011;63009;52.584;5.932;2022-09-09T03:35:02;9.98;;;3.90;;
74528;SDS011;63009;52.584;5.932;2022-09-09T03:37:27;8.93;;;3.85;;
74528;SDS011;63009;52.584;5.932;2022-09-09T03:39:53;9.43;;;3.70;;
74528;SDS011;63009;52.584;5.932;2022-09-09T03:42:21;8.65;;;3.88;;
74528;SDS011;63009;52.584;5.932;2022-09-09T03:44:46;12.70;;;4.07;;
74528;SDS011;63009;52.584;5.932;2022-09-09T03:47:14;8.85;;;3.90;;
74528;SDS011;63009;52.584;5.932;2022-09-09T03:49:40;9.45;;;4.40;;
74528;SDS011;63009;52.584;5.932;2022-09-09T03:52:05;9.23;;;4.30;;
74528;SDS011;63009;52.584;5.932;2022-09-09T03:54:31;11.33;;;3.97;;
74528;SDS011;63009;52.584;5.932;2022-09-09T03:56:56;11.23;;;4.27;;
74528;SDS011;63009;52.584;5.932;2022-09-09T03:59:21;11.48;;;5.07;;
74528;SDS011;63009;52.584;5.932;2022-09-09T04:01:48;10.90;;;4.50;;
74528;SDS011;63009;52.584;5.932;2022-09-09T04:04:13;10.57;;;4.10;;
74528;SDS011;63009;52.584;5.932;2022-09-09T04:06:38;10.83;;;3.93;;
74528;SDS011;63009;52.584;5.932;2022-09-09T04:09:04;9.65;;;4.20;;
74528;SDS011;63009;52.584;5.932;2022-09-09T04:11:29;10.48;;;4.57;;
74528;SDS011;63009;52.584;5.932;2022-09-09T04:13:55;9.13;;;3.75;;
74528;SDS011;63009;52.584;5.932;2022-09-09T04:16:20;9.23;;;3.93;;
74528;SDS011;63009;52.584;5.932;2022-09-09T04:18:45;9.00;;;4.05;;
74528;SDS011;63009;52.584;5.932;2022-09-09T04:21:11;11.00;;;4.40;;
74528;SDS011;63009;52.584;5.932;2022-09-09T04:23:37;9.18;;;3.75;;
74528;SDS011;63009;52.584;5.932;2022-09-09T04:26:03;9.80;;;3.63;;
74528;SDS011;63009;52.584;5.932;2022-09-09T04:28:31;8.48;;;3.95;;
74528;SDS011;63009;52.584;5.932;2022-09-09T04:31:05;8.38;;;3.55;;
74528;SDS011;63009;52.584;5.932;2022-09-09T04:33:32;9.82;;;4.25;;
74528;SDS011;63009;52.584;5.932;2022-09-09T04:35:58;11.43;;;4.22;;
74528;SDS011;63009;52.584;5.932;2022-09-09T04:38:23;10.17;;;4.47;;
74528;SDS011;63009;52.584;5.932;2022-09-09T04:40:49;10.73;;;3.90;;
74528;SDS011;63009;52.584;5.932;2022-09-09T04:43:16;10.45;;;3.85;;
74528;SDS011;63009;52.584;5.932;2022-09-09T04:45:43;10.70;;;4.57;;
74528;SDS011;63009;52.584;5.932;2022-09-09T04:48:08;9.82;;;4.40;;
74528;SDS011;63009;52.584;5.932;2022-09-09T04:50:37;10.60;;;4.97;;
74528;SDS011;63009;52.584;5.932;2022-09-09T04:53:03;11.82;;;5.63;;
74528;SDS011;63009;52.584;5.932;2022-09-09T04:55:30;13.38;;;5.03;;
74528;SDS011;63009;52.584;5.932;2022-09-09T04:57:56;11.02;;;4.78;;
74528;SDS011;63009;52.584;5.932;2022-09-09T05:00:22;9.45;;;4.30;;
74528;SDS011;63009;52.584;5.932;2022-09-09T05:02:48;10.20;;;4.93;;
74528;SDS011;63009;52.584;5.932;2022-09-09T05:05:13;9.97;;;5.27;;
74528;SDS011;63009;52.584;5.932;2022-09-09T05:07:38;12.03;;;5.17;;
74528;SDS011;63009;52.584;5.932;2022-09-09T05:10:03;12.35;;;5.80;;
74528;SDS011;63009;52.584;5.932;2022-09-09T05:12:30;12.80;;;5.15;;
74528;SDS011;63009;52.584;5.932;2022-09-09T05:14:56;12.15;;;5.05;;
74528;SDS011;63009;52.584;5.932;2022-09-09T05:17:21;11.63;;;5.10;;
74528;SDS011;63009;52.584;5.932;2022-09-09T05:19:47;11.13;;;5.03;;
74528;SDS011;63009;52.584;5.932;2022-09-09T05:22:12;10.83;;;4.93;;
74528;SDS011;63009;52.584;5.932;2022-09-09T05:24:38;9.80;;;4.77;;
74528;SDS011;63009;52.584;5.932;2022-09-09T05:27:03;12.23;;;4.68;;
74528;SDS011;63009;52.584;5.932;2022-09-09T05:29:31;10.07;;;5.28;;
74528;SDS011;63009;52.584;5.932;2022-09-09T05:31:58;12.05;;;5.10;;
74528;SDS011;63009;52.584;5.932;2022-09-09T05:34:23;9.60;;;4.70;;
74528;SDS011;63009;52.584;5.932;2022-09-09T05:36:49;12.20;;;4.65;;
74528;SDS011;63009;52.584;5.932;2022-09-09T05:39:14;10.45;;;4.68;;
74528;SDS011;63009;52.584;5.932;2022-09-09T05:41:39;11.60;;;4.90;;
74528;SDS011;63009;52.584;5.932;2022-09-09T05:44:05;10.83;;;4.00;;
74528;SDS011;63009;52.584;5.932;2022-09-09T05:46:31;9.93;;;4.13;;
74528;SDS011;63009;52.584;5.932;2022-09-09T05:48:56;11.68;;;4.45;;
74528;SDS011;63009;52.584;5.932;2022-09-09T05:51:24;11.48;;;4.15;;
74528;SDS011;63009;52.584;5.932;2022-09-09T05:56:18;9.27;;;4.53;;
74528;SDS011;63009;52.584;5.932;2022-09-09T05:58:49;9.55;;;4.38;;
74528;SDS011;63009;52.584;5.932;2022-09-09T06:03:44;9.45;;;4.22;;
74528;SDS011;63009;52.584;5.932;2022-09-09T06:06:15;12.85;;;5.40;;
74528;SDS011;63009;52.584;5.932;2022-09-09T06:08:42;10.13;;;4.68;;
74528;SDS011;63009;52.584;5.932;2022-09-09T06:16:04;11.98;;;5.63;;
74528;SDS011;63009;52.584;5.932;2022-09-09T06:18:32;16.52;;;5.25;;
74528;SDS011;63009;52.584;5.932;2022-09-09T06:20:58;13.48;;;5.22;;
74528;SDS011;63009;52.584;5.932;2022-09-09T06:23:31;10.88;;;4.75;;
74528;SDS011;63009;52.584;5.932;2022-09-09T06:26:04;10.73;;;4.15;;
74528;SDS011;63009;52.584;5.932;2022-09-09T06:28:31;10.40;;;4.82;;
74528;SDS011;63009;52.584;5.932;2022-09-09T06:30:58;10.32;;;5.03;;
74528;SDS011;63009;52.584;5.932;2022-09-09T06:33:24;10.45;;;4.28;;
74528;SDS011;63009;52.584;5.932;2022-09-09T06:35:53;13.10;;;5.00;;
74528;SDS011;63009;52.584;5.932;2022-09-09T06:38:19;10.65;;;4.70;;
74528;SDS011;63009;52.584;5.932;2022-09-09T06:40:54;10.63;;;3.95;;
74528;SDS011;63009;52.584;5.932;2022-09-09T06:43:21;12.57;;;4.35;;
74528;SDS011;63009;52.584;5.932;2022-09-09T06:45:57;9.30;;;4.10;;
74528;SDS011;63009;52.584;5.932;2022-09-09T06:48:25;8.25;;;3.80;;
74528;SDS011;63009;52.584;5.932;2022-09-09T06:50:59;9.23;;;4.00;;
74528;SDS011;63009;52.584;5.932;2022-09-09T06:53:51;10.30;;;4.82;;
74528;SDS011;63009;52.584;5.932;2022-09-09T06:58:54;10.73;;;4.45;;
74528;SDS011;63009;52.584;5.932;2022-09-09T07:01:25;11.52;;;3.88;;
74528;SDS011;63009;52.584;5.932;2022-09-09T07:03:53;11.93;;;4.45;;
74528;SDS011;63009;52.584;5.932;2022-09-09T07:06:23;10.30;;;4.35;;
74528;SDS011;63009;52.584;5.932;2022-09-09T07:08:54;10.63;;;4.35;;
74528;SDS011;63009;52.584;5.932;2022-09-09T07:11:22;10.00;;;4.20;;
74528;SDS011;63009;52.584;5.932;2022-09-09T07:13:48;9.55;;;4.72;;
74528;SDS011;63009;52.584;5.932;2022-09-09T07:16:15;11.60;;;4.20;;
74528;SDS011;63009;52.584;5.932;2022-09-09T07:18:42;10.73;;;5.18;;
74528;SDS011;63009;52.584;5.932;2022-09-09T07:21:09;12.18;;;4.20;;
74528;SDS011;63009;52.584;5.932;2022-09-09T07:23:37;9.30;;;3.85;;
74528;SDS011;63009;52.584;5.932;2022-09-09T07:26:06;10.25;;;4.18;;
74528;SDS011;63009;52.584;5.932;2022-09-09T07:28:33;11.00;;;5.00;;
74528;SDS011;63009;52.584;5.932;2022-09-09T07:31:00;9.00;;;3.65;;
74528;SDS011;63009;52.584;5.932;2022-09-09T07:33:27;13.45;;;4.57;;
74528;SDS011;63009;52.584;5.932;2022-09-09T07:36:01;9.10;;;3.97;;
74528;SDS011;63009;52.584;5.932;2022-09-09T07:38:32;9.63;;;3.08;;
74528;SDS011;63009;52.584;5.932;2022-09-09T07:41:03;12.98;;;3.58;;
74528;SDS011;63009;52.584;5.932;2022-09-09T07:43:36;8.85;;;3.42;;
74528;SDS011;63009;52.584;5.932;2022-09-09T07:46:02;10.88;;;3.55;;
74528;SDS011;63009;52.584;5.932;2022-09-09T07:48:28;9.53;;;3.30;;
74528;SDS011;63009;52.584;5.932;2022-09-09T07:51:02;9.57;;;3.30;;
74528;SDS011;63009;52.584;5.932;2022-09-09T07:53:32;9.27;;;3.50;;
74528;SDS011;63009;52.584;5.932;2022-09-09T07:56:05;9.48;;;2.95;;
74528;SDS011;63009;52.584;5.932;2022-09-09T07:58:33;9.65;;;2.92;;
74528;SDS011;63009;52.584;5.932;2022-09-09T08:01:06;9.15;;;2.72;;
74528;SDS011;63009;52.584;5.932;2022-09-09T08:03:32;10.95;;;3.30;;
74528;SDS011;63009;52.584;5.932;2022-09-09T08:06:04;12.00;;;2.72;;
74528;SDS011;63009;52.584;5.932;2022-09-09T08:08:32;10.18;;;3.05;;
74528;SDS011;63009;52.584;5.932;2022-09-09T08:11:05;8.00;;;2.88;;
74528;SDS011;63009;52.584;5.932;2022-09-09T08:13:42;8.85;;;2.28;;
74528;SDS011;63009;52.584;5.932;2022-09-09T08:16:09;10.15;;;2.78;;
74528;SDS011;63009;52.584;5.932;2022-09-09T08:21:09;9.23;;;2.67;;
74528;SDS011;63009;52.584;5.932;2022-09-09T08:23:40;8.40;;;2.63;;
74528;SDS011;63009;52.584;5.932;2022-09-09T08:26:14;8.43;;;2.80;;
74528;SDS011;63009;52.584;5.932;2022-09-09T08:28:41;8.27;;;2.33;;
74528;SDS011;63009;52.584;5.932;2022-09-09T08:31:09;9.27;;;2.13;;
74528;SDS011;63009;52.584;5.932;2022-09-09T08:33:38;8.60;;;1.98;;
74528;SDS011;63009;52.584;5.932;2022-09-09T08:36:04;6.32;;;2.10;;
74528;SDS011;63009;52.584;5.932;2022-09-09T08:38:31;7.70;;;2.50;;
74528;SDS011;63009;52.584;5.932;2022-09-09T08:44:00;7.47;;;2.40;;
74528;SDS011;63009;52.584;5.932;2022-09-09T08:48:58;7.55;;;2.25;;
74528;SDS011;63009;52.584;5.932;2022-09-09T08:51:30;9.43;;;2.33;;
74528;SDS011;63009;52.584;5.932;2022-09-09T08:53:58;9.23;;;1.92;;
74528;SDS011;63009;52.584;5.932;2022-09-09T08:56:27;7.30;;;2.08;;
74528;SDS011;63009;52.584;5.932;2022-09-09T08:58:56;10.23;;;2.50;;
74528;SDS011;63009;52.584;5.932;2022-09-09T09:01:30;9.75;;;2.17;;
74528;SDS011;63009;52.584;5.932;2022-09-09T09:09:26;9.45;;;2.15;;
74528;SDS011;63009;52.584;5.932;2022-09-09T09:12:06;10.75;;;3.40;;
74528;SDS011;63009;52.584;5.932;2022-09-09T09:14:40;7.82;;;2.20;;
74528;SDS011;63009;52.584;5.932;2022-09-09T09:17:06;11.35;;;2.28;;
74528;SDS011;63009;52.584;5.932;2022-09-09T09:19:38;10.82;;;2.83;;
74528;SDS011;63009;52.584;5.932;2022-09-09T09:27:35;7.38;;;1.70;;
74528;SDS011;63009;52.584;5.932;2022-09-09T09:30:23;6.70;;;1.63;;
74528;SDS011;63009;52.584;5.932;2022-09-09T09:35:25;13.23;;;2.38;;
74528;SDS011;63009;52.584;5.932;2022-09-09T09:37:50;8.90;;;3.03;;
74528;SDS011;63009;52.584;5.932;2022-09-09T09:40:18;9.18;;;2.22;;
74528;SDS011;63009;52.584;5.932;2022-09-09T09:42:52;6.78;;;1.73;;
74528;SDS011;63009;52.584;5.932;2022-09-09T09:45:25;7.95;;;2.28;;
74528;SDS011;63009;52.584;5.932;2022-09-09T09:48:04;7.30;;;1.70;;
74528;SDS011;63009;52.584;5.932;2022-09-09T09:50:30;9.05;;;1.70;;
74528;SDS011;63009;52.584;5.932;2022-09-09T09:52:58;13.80;;;2.15;;
74528;SDS011;63009;52.584;5.932;2022-09-09T09:55:26;7.22;;;1.98;;
74528;SDS011;63009;52.584;5.932;2022-09-09T09:58:00;7.55;;;2.05;;
74528;SDS011;63009;52.584;5.932;2022-09-09T10:00:27;11.85;;;2.05;;
74528;SDS011;63009;52.584;5.932;2022-09-09T10:02:52;9.02;;;2.45;;
74528;SDS011;63009;52.584;5.932;2022-09-09T10:05:22;7.63;;;1.92;;
74528;SDS011;63009;52.584;5.932;2022-09-09T10:08:10;8.80;;;2.17;;
74528;SDS011;63009;52.584;5.932;2022-09-09T10:16:47;8.48;;;1.92;;
74528;SDS011;63009;52.584;5.932;2022-09-09T10:19:31;7.57;;;1.90;;
74528;SDS011;63009;52.584;5.932;2022-09-09T10:22:02;9.55;;;2.17;;
74528;SDS011;63009;52.584;5.932;2022-09-09T10:30:05;7.68;;;2.05;;
74528;SDS011;63009;52.584;5.932;2022-09-09T10:32:56;5.95;;;2.08;;
74528;SDS011;63009;52.584;5.932;2022-09-09T10:40:33;8.43;;;2.30;;
74528;SDS011;63009;52.584;5.932;2022-09-09T10:52:17;8.38;;;2.20;;
74528;SDS011;63009;52.584;5.932;2022-09-09T10:55:18;10.45;;;2.50;;
74528;SDS011;63009;52.584;5.932;2022-09-09T10:57:46;5.65;;;1.73;;
74528;SDS011;63009;52.584;5.932;2022-09-09T11:00:17;9.40;;;2.05;;
74528;SDS011;63009;52.584;5.932;2022-09-09T11:02:45;11.52;;;2.38;;
74528;SDS011;63009;52.584;5.932;2022-09-09T11:05:19;8.07;;;1.88;;
74528;SDS011;63009;52.584;5.932;2022-09-09T11:08:08;7.30;;;1.88;;
74528;SDS011;63009;52.584;5.932;2022-09-09T11:13:28;8.73;;;2.08;;
74528;SDS011;63009;52.584;5.932;2022-09-09T11:16:01;10.57;;;2.13;;
74528;SDS011;63009;52.584;5.932;2022-09-09T11:19:03;7.25;;;1.90;;
74528;SDS011;63009;52.584;5.932;2022-09-09T11:21:46;12.23;;;3.85;;
74528;SDS011;63009;52.584;5.932;2022-09-09T11:26:57;7.07;;;2.17;;
74528;SDS011;63009;52.584;5.932;2022-09-09T11:38:36;7.15;;;1.63;;
74528;SDS011;63009;52.584;5.932;2022-09-09T11:40:36;7.38;;;2.20;;
74528;SDS011;63009;52.584;5.932;2022-09-09T11:43:03;8.80;;;2.50;;
74528;SDS011;63009;52.584;5.932;2022-09-09T11:45:33;8.40;;;2.28;;
74528;SDS011;63009;52.584;5.932;2022-09-09T11:48:01;7.25;;;2.00;;
74528;SDS011;63009;52.584;5.932;2022-09-09T11:50:28;9.13;;;2.38;;
74528;SDS011;63009;52.584;5.932;2022-09-09T11:53:03;10.60;;;2.40;;
74528;SDS011;63009;52.584;5.932;2022-09-09T11:55:30;7.63;;;2.10;;
74528;SDS011;63009;52.584;5.932;2022-09-09T12:00:38;7.30;;;2.30;;
74528;SDS011;63009;52.584;5.932;2022-09-09T12:06:10;8.00;;;2.20;;
74528;SDS011;63009;52.584;5.932;2022-09-09T12:08:40;12.40;;;2.50;;
74528;SDS011;63009;52.584;5.932;2022-09-09T12:11:08;8.32;;;1.70;;
74528;SDS011;63009;52.584;5.932;2022-09-09T12:13:34;6.35;;;1.70;;
74528;SDS011;63009;52.584;5.932;2022-09-09T12:16:00;6.47;;;1.80;;
74528;SDS011;63009;52.584;5.932;2022-09-09T12:18:36;13.35;;;2.53;;
74528;SDS011;63009;52.584;5.932;2022-09-09T12:26:47;7.03;;;1.73;;
74528;SDS011;63009;52.584;5.932;2022-09-09T12:29:26;7.90;;;2.10;;
74528;SDS011;63009;52.584;5.932;2022-09-09T12:34:43;5.97;;;1.63;;
74528;SDS011;63009;52.584;5.932;2022-09-09T12:37:32;5.40;;;1.73;;
74528;SDS011;63009;52.584;5.932;2022-09-09T12:40:02;6.43;;;1.70;;
74528;SDS011;63009;52.584;5.932;2022-09-09T12:42:45;8.48;;;2.20;;
74528;SDS011;63009;52.584;5.932;2022-09-09T12:45:16;7.05;;;1.90;;
74528;SDS011;63009;52.584;5.932;2022-09-09T12:47:48;5.95;;;2.00;;
74528;SDS011;63009;52.584;5.932;2022-09-09T12:50:33;7.40;;;1.80;;
74528;SDS011;63009;52.584;5.932;2022-09-09T12:53:08;8.60;;;2.03;;
74528;SDS011;63009;52.584;5.932;2022-09-09T12:55:48;7.55;;;1.80;;
74528;SDS011;63009;52.584;5.932;2022-09-09T12:58:24;6.93;;;2.10;;
74528;SDS011;63009;52.584;5.932;2022-09-09T13:00:53;5.57;;;1.60;;
74528;SDS011;63009;52.584;5.932;2022-09-09T13:03:23;5.35;;;1.42;;
74528;SDS011;63009;52.584;5.932;2022-09-09T13:05:50;5.78;;;1.70;;
74528;SDS011;63009;52.584;5.932;2022-09-09T13:08:16;8.50;;;2.00;;
74528;SDS011;63009;52.584;5.932;2022-09-09T13:13:21;5.68;;;1.70;;
74528;SDS011;63009;52.584;5.932;2022-09-09T13:15:50;5.70;;;1.80;;
74528;SDS011;63009;52.584;5.932;2022-09-09T13:18:18;7.07;;;1.80;;
74528;SDS011;63009;52.584;5.932;2022-09-09T13:20:48;6.55;;;1.67;;
74528;SDS011;63009;52.584;5.932;2022-09-09T13:23:15;8.60;;;2.20;;
74528;SDS011;63009;52.584;5.932;2022-09-09T13:25:52;7.70;;;2.22;;
74528;SDS011;63009;52.584;5.932;2022-09-09T13:28:20;6.32;;;2.00;;
74528;SDS011;63009;52.584;5.932;2022-09-09T13:30:56;7.78;;;2.20;;
74528;SDS011;63009;52.584;5.932;2022-09-09T13:33:28;7.40;;;2.20;;
74528;SDS011;63009;52.584;5.932;2022-09-09T13:35:56;6.80;;;1.83;;
74528;SDS011;63009;52.584;5.932;2022-09-09T13:38:24;5.82;;;2.03;;
74528;SDS011;63009;52.584;5.932;2022-09-09T13:41:08;5.55;;;1.90;;
74528;SDS011;63009;52.584;5.932;2022-09-09T13:43:42;10.30;;;2.08;;
74528;SDS011;63009;52.584;5.932;2022-09-09T13:51:42;5.78;;;1.90;;
74528;SDS011;63009;52.584;5.932;2022-09-09T13:54:12;5.93;;;1.63;;
74528;SDS011;63009;52.584;5.932;2022-09-09T13:56:39;9.43;;;2.00;;
74528;SDS011;63009;52.584;5.932;2022-09-09T13:59:09;6.88;;;1.90;;
74528;SDS011;63009;52.584;5.932;2022-09-09T14:01:36;5.60;;;1.95;;
74528;SDS011;63009;52.584;5.932;2022-09-09T14:04:02;7.85;;;1.67;;
74528;SDS011;63009;52.584;5.932;2022-09-09T14:06:28;8.77;;;2.20;;
74528;SDS011;63009;52.584;5.932;2022-09-09T14:08:55;6.40;;;2.05;;
74528;SDS011;63009;52.584;5.932;2022-09-09T14:11:21;10.20;;;1.92;;
74528;SDS011;63009;52.584;5.932;2022-09-09T14:13:47;7.78;;;2.15;;
74528;SDS011;63009;52.584;5.932;2022-09-09T14:18:40;6.13;;;2.30;;
74528;SDS011;63009;52.584;5.932;2022-09-09T14:21:05;8.93;;;2.30;;
74528;SDS011;63009;52.584;5.932;2022-09-09T14:23:31;8.15;;;2.03;;
74528;SDS011;63009;52.584;5.932;2022-09-09T14:25:57;7.18;;;2.63;;
74528;SDS011;63009;52.584;5.932;2022-09-09T14:28:22;7.10;;;2.00;;
74528;SDS011;63009;52.584;5.932;2022-09-09T14:30:47;5.85;;;2.45;;
74528;SDS011;63009;52.584;5.932;2022-09-09T14:33:14;6.53;;;2.10;;
74528;SDS011;63009;52.584;5.932;2022-09-09T14:35:41;8.60;;;2.83;;
74528;SDS011;63009;52.584;5.932;2022-09-09T14:38:08;8.68;;;2.30;;
74528;SDS011;63009;52.584;5.932;2022-09-09T14:40:34;5.75;;;2.30;;
74528;SDS011;63009;52.584;5.932;2022-09-09T14:43:02;7.05;;;2.35;;
74528;SDS011;63009;52.584;5.932;2022-09-09T14:45:28;6.63;;;1.88;;
74528;SDS011;63009;52.584;5.932;2022-09-09T14:47:53;7.68;;;2.25;;
74528;SDS011;63009;52.584;5.932;2022-09-09T14:50:19;6.50;;;2.13;;
74528;SDS011;63009;52.584;5.932;2022-09-09T14:52:46;6.90;;;2.25;;
74528;SDS011;63009;52.584;5.932;2022-09-09T14:55:12;7.15;;;2.35;;
74528;SDS011;63009;52.584;5.932;2022-09-09T14:57:37;7.15;;;2.30;;
74528;SDS011;63009;52.584;5.932;2022-09-09T15:00:04;7.78;;;2.78;;
74528;SDS011;63009;52.584;5.932;2022-09-09T15:02:30;7.97;;;2.63;;
74528;SDS011;63009;52.584;5.932;2022-09-09T15:04:56;8.07;;;2.30;;
74528;SDS011;63009;52.584;5.932;2022-09-09T15:07:23;6.65;;;2.17;;
74528;SDS011;63009;52.584;5.932;2022-09-09T15:09:49;7.07;;;2.33;;
74528;SDS011;63009;52.584;5.932;2022-09-09T15:12:14;6.80;;;1.88;;
74528;SDS011;63009;52.584;5.932;2022-09-09T15:14:40;5.88;;;1.88;;
74528;SDS011;63009;52.584;5.932;2022-09-09T15:17:05;8.63;;;2.33;;
74528;SDS011;63009;52.584;5.932;2022-09-09T15:19:30;8.15;;;2.33;;
74528;SDS011;63009;52.584;5.932;2022-09-09T15:21:56;8.73;;;2.08;;
74528;SDS011;63009;52.584;5.932;2022-09-09T15:24:22;7.10;;;2.50;;
74528;SDS011;63009;52.584;5.932;2022-09-09T15:26:47;6.35;;;2.00;;
74528;SDS011;63009;52.584;5.932;2022-09-09T15:29:13;7.20;;;2.10;;
74528;SDS011;63009;52.584;5.932;2022-09-09T15:31:38;7.87;;;2.13;;
74528;SDS011;63009;52.584;5.932;2022-09-09T15:34:04;8.98;;;2.30;;
74528;SDS011;63009;52.584;5.932;2022-09-09T15:36:32;8.82;;;2.50;;
74528;SDS011;63009;52.584;5.932;2022-09-09T15:39:08;8.35;;;2.00;;
74528;SDS011;63009;52.584;5.932;2022-09-09T15:41:37;8.95;;;2.33;;
74528;SDS011;63009;52.584;5.932;2022-09-09T15:44:03;8.43;;;2.20;;
74528;SDS011;63009;52.584;5.932;2022-09-09T15:46:32;6.97;;;2.10;;
74528;SDS011;63009;52.584;5.932;2022-09-09T15:51:41;6.63;;;1.95;;
74528;SDS011;63009;52.584;5.932;2022-09-09T15:54:07;7.60;;;2.40;;
74528;SDS011;63009;52.584;5.932;2022-09-09T15:56:34;8.55;;;2.70;;
74528;SDS011;63009;52.584;5.932;2022-09-09T15:59:00;6.53;;;2.25;;
74528;SDS011;63009;52.584;5.932;2022-09-09T16:03:53;7.40;;;2.65;;
74528;SDS011;63009;52.584;5.932;2022-09-09T16:06:20;5.78;;;2.00;;
74528;SDS011;63009;52.584;5.932;2022-09-09T16:08:48;8.63;;;1.80;;
74528;SDS011;63009;52.584;5.932;2022-09-09T16:11:17;7.13;;;2.15;;
74528;SDS011;63009;52.584;5.932;2022-09-09T16:13:50;6.35;;;2.00;;
74528;SDS011;63009;52.584;5.932;2022-09-09T16:16:19;5.47;;;1.90;;
74528;SDS011;63009;52.584;5.932;2022-09-09T16:18:53;5.60;;;1.80;;
74528;SDS011;63009;52.584;5.932;2022-09-09T16:21:21;6.80;;;1.75;;
74528;SDS011;63009;52.584;5.932;2022-09-09T16:23:54;5.13;;;1.88;;
74528;SDS011;63009;52.584;5.932;2022-09-09T16:26:20;7.75;;;1.90;;
74528;SDS011;63009;52.584;5.932;2022-09-09T16:28:46;6.72;;;1.73;;
74528;SDS011;63009;52.584;5.932;2022-09-09T16:31:22;9.55;;;2.20;;
74528;SDS011;63009;52.584;5.932;2022-09-09T16:33:49;7.05;;;2.35;;
74528;SDS011;63009;52.584;5.932;2022-09-09T16:36:16;6.78;;;1.85;;
74528;SDS011;63009;52.584;5.932;2022-09-09T16:38:43;8.13;;;2.20;;
74528;SDS011;63009;52.584;5.932;2022-09-09T16:41:10;6.45;;;2.10;;
74528;SDS011;63009;52.584;5.932;2022-09-09T16:43:37;7.57;;;2.90;;
74528;SDS011;63009;52.584;5.932;2022-09-09T16:46:03;5.85;;;2.05;;
74528;SDS011;63009;52.584;5.932;2022-09-09T16:48:36;5.75;;;2.08;;
74528;SDS011;63009;52.584;5.932;2022-09-09T16:51:23;7.00;;;2.10;;
74528;SDS011;63009;52.584;5.932;2022-09-09T16:53:49;7.50;;;1.92;;
74528;SDS011;63009;52.584;5.932;2022-09-09T16:56:16;7.80;;;2.40;;
74528;SDS011;63009;52.584;5.932;2022-09-09T16:58:43;7.30;;;2.40;;
74528;SDS011;63009;52.584;5.932;2022-09-09T17:01:15;9.60;;;2.67;;
74528;SDS011;63009;52.584;5.932;2022-09-09T17:03:40;10.75;;;4.13;;
74528;SDS011;63009;52.584;5.932;2022-09-09T17:06:10;6.32;;;2.13;;
74528;SDS011;63009;52.584;5.932;2022-09-09T17:08:37;9.73;;;2.67;;
74528;SDS011;63009;52.584;5.932;2022-09-09T17:11:04;7.85;;;2.75;;
74528;SDS011;63009;52.584;5.932;2022-09-09T17:13:38;8.88;;;2.85;;
74528;SDS011;63009;52.584;5.932;2022-09-09T17:16:04;9.35;;;3.20;;
74528;SDS011;63009;52.584;5.932;2022-09-09T17:18:29;6.93;;;2.30;;
74528;SDS011;63009;52.584;5.932;2022-09-09T17:20:56;6.50;;;2.15;;
74528;SDS011;63009;52.584;5.932;2022-09-09T17:23:28;6.45;;;2.40;;